Relevés horaires Beauvechain (Belgique)


Relevés horaires à Beauvechain - Jeudi 02 Avr. 2020
Heure UTC1 Température [°C] Vent [km/h] Hum. [%] Pres.4 [hPa] Visi. [Km] Nébu. [octa] Préc.5 [mm] Cond.
2m. Res. Ros. Dir.2 Vit. Moy. Raf.3
23:00 6.8 5.4 3.0 OSO 7.4 -- 11.1 77 1013.7(-0.1/3h) 20 -- -- --
22:00 7.6 6.3 2.5 OSO 7.4 -- 11.1 70 1013.8(0.1/3h) 20 -- -- --
21:00 7.7 6.9 1.3 SO 5.6 -- 9.3 64 1014(0.1/3h) 20 -- -- --
20:00 6.7 5.8 0.6 SO 5.6 -- 7.4 65 1014(0.0/3h) 20 -- -- --
19:00 7.8 7.8 0.7 OSO 3.7 -- 5.6 61 1013.7(-0.3/3h) 20 -- -- --
18:00 8.3 8.3 0.6 NNO 3.7 -- 13.0 58 1013.7(-0.2/3h) 19 -- -- --
17:00 8.6 8.6 0.3 OSO 3.7 -- 11.1 56 1013.7(-0.6/3h) 20 -- -- --
16:00 8.6 7.1 -- O 9.3 -- 11.1 -- 1013.8(-0.8/3h) 20 -- -- --
15:00 8.9 7.9 -- O 7.4 -- 13.0 -- 1014(-1.1/3h) 20 -- -- --
14:00 8.6 8 -0.5 O 5.6 -- 11.1 53 1014.5(-1.1/3h) 20 -- -- --
13:00 8.5 7.9 -0.9 O 5.6 -- 11.1 52 1014.7(-1.3/3h) 18 -- -- --
12:00 8.5 7.4 -1.3 O 7.4 -- 11.1 50 1015.2(-1.4/3h) 20 -- -- --
11:00 7.8 7.8 -1.9 ONO 3.7 -- 7.4 50 1015.7(-0.8/3h) 20 -- -- --
10:00 7.4 7.4 -1.6 OSO 3.7 -- 7.4 53 1016.2(-0.4/3h) 20 -- -- --
09:00 6.0 6.0 -1.3 NNO 1.9 -- 11.1 59 1016.7(0.0/3h) 20 -- -- --
08:00 4.2 4.2 0.7 OSO 3.7 -- 5.6 78 1016.7(0.0/3h) 17 -- -- --
07:00 1.8 1.8 0.3 NNO 1.9 -- 11.1 90 1017.1(0.0/3h) 6 -- -- --
06:00 0.5 0.5 -0.5 SO 3.7 -- 5.6 93 1017.1(-0.5/3h) 5 -- -- --
05:00 0.4 0.4 -0.6 NNO 1.9 -- 3.7 93 1017(-1.2/3h) 6 -- -- --
04:00 1.1 1.1 -0.5 NNO 3.7 -- 3.7 89 1017.2(-1.1/3h) 11 -- -- --
03:00 1.3 1.3 -0.5 NNO 1.9 -- 3.7 88 1017.6(-1.0/3h) 13 -- -- --
02:00 1.1 1.1 -0.6 NNO 1.9 -- 1.9 88 1018.2(-0.6/3h) 16 -- -- --
01:00 1.7 1.7 -0.4 NNO 1.9 -- 3.7 86 1018.2(-1.0/3h) 20 -- -- --
00:00 2.2 2.2 -0.5 NNO 1.9 -- 13.0 82 1018.6(-0.7/3h) 20 -- -- --

1 Coordinated Universal Time. Actuellement il est 22:00 locale et 20:00 UTC.

2 Le vent souffle depuis la direction indiquée vers la direction oposée.

3 Les rafales max. sont disponible 40 min après l'heure du relevé.

4 Pour les stations d'altitude (plus de 600m) le géopotentiel du niveau le plus proche de la pression obligatoire est indiqué.

5 Les stations disposant d'un diffuseur peuvent indiquer "trace". Cela signifie que des précipitations ont touchés le sol mais que la quantité est inférieure à 0.1 mm.

Récapitulatif de la journée
Température [°C] Vent [km/h] Ensoleillement4 [h] Precipitations totale5 [mm] Pression [Hpa]
Min1 Max.2 Moy.3 Max. Min Max.
0.2 9.3 0 13.0 0 h 0 min 0 1013.7 1018.6

1 Température minimale relevée entre 18:00 UTC la veille et 18:00 UTC le jour donné.

2 Température maximale relevée entre 06:00 UTC le jour donné et 06:00 UTC le lendemain.

3 Vent moyen de la journée basé sur les relevés horaires.

4 Ensoleillement en heures relevé entre 06:00 UTC la veille et 06:00 UTC le jour donné.

5 Précipitations totales tombées entre 06:00 UTC la jour donné et 06:00 UTC le lendemain.

Graphiques horaires